地図

経路データ

SID SEASON NUMBER BASIN SUBBASIN NAME ISO_TIME NATURE LAT LON WMO_WIND WMO_PRES WMO_AGENCY TRACK_TYPE DIST2LAND LANDFALL IFLAG USA_AGENCY USA_ATCF_ID USA_LAT USA_LON USA_RECORD USA_STATUS USA_WIND USA_PRES USA_SSHS USA_R34_NE USA_R34_SE USA_R34_SW USA_R34_NW USA_R50_NE USA_R50_SE USA_R50_SW USA_R50_NW USA_R64_NE USA_R64_SE USA_R64_SW USA_R64_NW USA_POCI USA_ROCI USA_RMW USA_EYE TOKYO_LAT TOKYO_LON TOKYO_GRADE TOKYO_WIND TOKYO_PRES TOKYO_R50_DIR TOKYO_R50_LONG TOKYO_R50_SHORT TOKYO_R30_DIR TOKYO_R30_LONG TOKYO_R30_SHORT TOKYO_LAND CMA_LAT CMA_LON CMA_CAT CMA_WIND CMA_PRES HKO_LAT HKO_LON HKO_CAT HKO_WIND HKO_PRES NEWDELHI_LAT NEWDELHI_LON NEWDELHI_GRADE NEWDELHI_WIND NEWDELHI_PRES NEWDELHI_CI NEWDELHI_DP NEWDELHI_POCI REUNION_LAT REUNION_LON REUNION_TYPE REUNION_WIND REUNION_PRES REUNION_TNUM REUNION_CI REUNION_RMW REUNION_R34_NE REUNION_R34_SE REUNION_R34_SW REUNION_R34_NW REUNION_R50_NE REUNION_R50_SE REUNION_R50_SW REUNION_R50_NW REUNION_R64_NE REUNION_R64_SE REUNION_R64_SW REUNION_R64_NW BOM_LAT BOM_LON BOM_TYPE BOM_WIND BOM_PRES BOM_TNUM BOM_CI BOM_RMW BOM_R34_NE BOM_R34_SE BOM_R34_SW BOM_R34_NW BOM_R50_NE BOM_R50_SE BOM_R50_SW BOM_R50_NW BOM_R64_NE BOM_R64_SE BOM_R64_SW BOM_R64_NW BOM_ROCI BOM_POCI BOM_EYE BOM_POS_METHOD BOM_PRES_METHOD NADI_LAT NADI_LON NADI_CAT NADI_WIND NADI_PRES WELLINGTON_LAT WELLINGTON_LON WELLINGTON_WIND WELLINGTON_PRES DS824_LAT DS824_LON DS824_STAGE DS824_WIND DS824_PRES TD9636_LAT TD9636_LON TD9636_STAGE TD9636_WIND TD9636_PRES TD9635_LAT TD9635_LON TD9635_WIND TD9635_PRES TD9635_ROCI NEUMANN_LAT NEUMANN_LON NEUMANN_CLASS NEUMANN_WIND NEUMANN_PRES MLC_LAT MLC_LON MLC_CLASS MLC_WIND MLC_PRES USA_GUST BOM_GUST BOM_GUST_PER REUNION_GUST REUNION_GUST_PER USA_SEAHGT USA_SEARAD_NE USA_SEARAD_SE USA_SEARAD_SW USA_SEARAD_NW STORM_SPEED STORM_DIR
1968235N19090 1968 70 NI BB NOT_NAMED 1968-08-21 18:00:00 TS 18.7000 90.3000 main 308 308 O________O____ jtwc_io IO061968 18.7000 90.3000 -1 18.7000 90.3000 TC 0 0
1968235N19090 1968 70 NI BB NOT_NAMED 1968-08-21 21:00:00 TS 18.7100 90.2774 main 308 308 P________P____ IO061968 18.7100 90.2774 -1 18.7100 90.2774 TC 1 317
1968235N19090 1968 70 NI BB NOT_NAMED 1968-08-22 00:00:00 TS 18.8000 90.2000 main 311 305 O________O____ jtwc_io IO061968 18.8000 90.2000 -1 18.8000 90.2000 TC 25 4 322
1968235N19090 1968 70 NI BB NOT_NAMED 1968-08-22 03:00:00 TS 19.0178 90.0267 main 305 267 P________PO___ IO061968 19.0200 90.0301 -1 19.0200 90.0301 TC 25 19.0000 90.0000 1 6 322
1968235N19090 1968 70 NI BB NOT_NAMED 1968-08-22 06:00:00 TS 19.2941 89.7932 main 267 240 O________OP___ jtwc_io IO061968 19.3000 89.8000 -1 19.3000 89.8000 TC 25 19.2706 89.7662 1 7 319
1968235N19090 1968 70 NI BB NOT_NAMED 1968-08-22 09:00:00 TS 19.5426 89.5460 main 238 202 P________PP___ IO061968 19.5425 89.5500 -1 19.5425 89.5500 TC 25 19.5428 89.5356 1 7 318
1968235N19090 1968 70 NI BB NOT_NAMED 1968-08-22 12:00:00 TS 19.8062 89.3041 main 202 167 O________OP___ jtwc_io IO061968 19.8000 89.3000 -1 19.8000 89.3000 TC 25 19.8186 89.3122 1 7 322
1968235N19090 1968 70 NI BB NOT_NAMED 1968-08-22 15:00:00 TS 20.0950 89.0900 main 167 134 P________PO___ IO061968 20.0925 89.0850 -1 20.0925 89.0850 TC 25 20.1000 89.1000 1 7 327
1968235N19090 1968 70 NI BB NOT_NAMED 1968-08-22 18:00:00 TS 20.3962 88.9008 main 134 101 O________OP___ jtwc_io IO061968 20.4000 88.9000 -1 20.4000 88.9000 TC 25 20.3887 88.9023 1 7 331
1968235N19090 1968 70 NI BB NOT_NAMED 1968-08-22 21:00:00 TS 20.6949 88.7349 main 102 67 P________PP___ IO061968 20.7000 88.7424 -1 20.7000 88.7424 TC 25 20.6849 88.7198 1 7 334
1968235N19090 1968 70 NI BB NOT_NAMED 1968-08-23 00:00:00 TS 20.9962 88.5841 main 67 33 O________OP___ jtwc_io IO061968 21.0000 88.6000 -1 21.0000 88.6000 TC 25 20.9887 88.5523 1 7 335
1968235N19090 1968 70 NI BB NOT_NAMED 1968-08-23 03:00:00 TS 21.2950 88.4333 main 33 0 P________PO___ IO061968 21.2925 88.4499 -1 21.2925 88.4499 TC 25 21.3000 88.4000 1 7 336
1968235N19090 1968 70 NI BB NOT_NAMED 1968-08-23 06:00:00 TS 21.6046 88.2854 main 0 0 O________OP___ jtwc_io IO061968 21.6000 88.3000 -1 21.6000 88.3000 TC 25 21.6137 88.2563 1 7 337
1968235N19090 1968 70 NI BB NOT_NAMED 1968-08-23 09:00:00 TS 21.9450 88.1374 main 10 0 P________PP___ IO061968 21.9500 88.1425 -1 21.9500 88.1425 TC 25 21.9349 88.1272 1 7 339
1968235N19090 1968 70 NI BB NOT_NAMED 1968-08-23 12:00:00 TS 22.2879 88.0032 main 0 0 O________OP___ jtwc_io IO061968 22.3000 88.0000 -1 22.3000 88.0000 TC 25 22.2637 88.0095 1 7 341
1968235N19090 1968 70 NI BB NOT_NAMED 1968-08-23 15:00:00 TS 22.6000 87.8949 main 0 0 P________PO___ IO061968 22.6000 87.8924 -1 22.6000 87.8924 TC 25 22.6000 87.9000 1 7 343
1968235N19090 1968 70 NI BB NOT_NAMED 1968-08-23 18:00:00 TS 22.9174 87.7984 main 0 0 O________OP___ jtwc_io IO061968 22.9000 87.8000 -1 22.9000 87.8000 TC 25 22.9435 87.7959 1 7 345
1968235N19090 1968 70 NI BB NOT_NAMED 1968-08-23 21:00:00 TS 23.2611 87.6996 main 0 0 P________PP___ IO061968 23.2375 87.7027 -1 23.2375 87.7027 TC 25 23.2926 87.6954 1 7 345
1968235N19090 1968 70 NI BB NOT_NAMED 1968-08-24 00:00:00 TS 23.6227 87.5986 main 0 0 O________OP___ jtwc_io IO061968 23.6000 87.6000 -1 23.6000 87.6000 TC 25 23.6454 87.5973 1 8 346
1968235N19090 1968 70 NI BB NOT_NAMED 1968-08-24 03:00:00 NR 24.0000 87.5000 main 0 __________O___ IO061968 -1 TC 24.0000 87.5000 1 8 347

IBTrACS Databaseについて

本データベースは、米国NOAAが公開する1842年以降の世界の熱帯低気圧のベストトラックデータアーカイブInternational Best Track Archive for Climate Stewardship (IBTrACS)を、ウェブで閲覧しやすい形式に変換したものです。

最終更新日:2021-12-06